Lomita, California
Current Conditions -  °F | °C
As of 4:53 PM on Friday 24 Oct 2014 (Local Time) from KHHR Reporting Station
Clear Clear  
Wind Chill: 79°   Ceiling: Unl
Heat Index: 80°   Visibility: 10mi
Dew Point: 61°   Wind: 6mph
Humidity: 54%   Direction: 290°WNW
Pressure: 29.93"   Gusts: NA
Location:  33.81°N, 118.31°W
Report Text: KHHR 242353Z 29005KT 10SM CLR 26/16 A2993 RMK AO2 SLP132 T02610161 10289 20256 56003
Loading
Personal Weather Stations






























Interactive Weather Map
Tropical Storm Tracking
New forecast layout! Learn more

10-Day Weather Forecast

Advertisements
Track Severe Weather on mobile